Time;durP1;ratioP1;P1;durP2;ratioP2;P2;SDS_P1;SDS_P2;PMS_P1;PMS_P2;Temp;Humidity;BMP_temperature;BMP_pressure;BME280_temperature;BME280_humidity;BME280_pressure;Samples;Min_cycle;Max_cycle;Signal;HPM_P1;HPM_P2
2022/12/03 00:01:46;;;;;;;9.35;5.05;;;17.80;1.00;;;;;;4824315;29;20046;-36
2022/12/03 00:04:13;;;;;;;9.73;4.82;;;17.70;1.00;;;;;;4824060;29;20072;-36
2022/12/03 00:06:40;;;;;;;8.15;4.55;;;17.80;1.00;;;;;;4824440;29;20046;-36
2022/12/03 00:09:06;;;;;;;9.73;5.53;;;17.70;1.00;;;;;;4824230;29;20046;-37
2022/12/03 00:11:33;;;;;;;8.77;5.32;;;17.60;1.00;;;;;;4824118;29;20146;-36
2022/12/03 00:14:00;;;;;;;8.63;4.53;;;17.60;1.00;;;;;;4824011;29;20046;-36
2022/12/03 00:16:27;;;;;;;8.55;5.07;;;17.50;1.00;;;;;;4824204;29;20078;-36
2022/12/03 00:18:53;;;;;;;7.20;4.55;;;17.50;1.00;;;;;;4824223;29;20085;-37
2022/12/03 00:21:20;;;;;;;9.02;5.13;;;17.50;1.00;;;;;;4824051;29;20038;-36
2022/12/03 00:23:50;;;;;;;7.28;4.15;;;17.40;1.00;;;;;;4823790;29;20123;-37
2022/12/03 00:26:17;;;;;;;7.40;4.20;;;17.40;1.00;;;;;;4823758;29;20502;-36
2022/12/03 00:28:43;;;;;;;7.97;4.38;;;17.40;1.00;;;;;;4824096;29;20414;-37
2022/12/03 00:31:10;;;;;;;7.60;4.75;;;17.30;1.00;;;;;;4807575;29;20257;-37
2022/12/03 00:33:37;;;;;;;6.85;4.18;;;17.30;1.00;;;;;;4823747;29;20147;-36
2022/12/03 00:36:04;;;;;;;6.80;4.35;;;17.30;1.00;;;;;;4823752;29;20464;-36
2022/12/03 00:38:31;;;;;;;7.22;4.32;;;17.30;1.00;;;;;;4823998;29;20074;-36
2022/12/03 00:40:57;;;;;;;8.18;4.60;;;17.30;1.00;;;;;;4807228;29;20082;-36
2022/12/03 00:43:24;;;;;;;9.20;5.25;;;17.30;1.00;;;;;;4823638;29;20050;-36
2022/12/03 00:45:51;;;;;;;7.63;3.95;;;17.30;1.00;;;;;;4823622;29;20050;-36
2022/12/03 00:48:18;;;;;;;8.05;4.85;;;17.20;1.00;;;;;;4823708;29;20567;-36
2022/12/03 00:50:44;;;;;;;6.38;4.22;;;17.20;1.00;;;;;;4823537;29;20041;-36
2022/12/03 00:53:11;;;;;;;7.38;4.55;;;17.20;1.00;;;;;;4823431;29;20081;-36
2022/12/03 00:55:38;;;;;;;7.55;4.70;;;17.20;1.00;;;;;;4823523;29;20048;-36
2022/12/03 00:58:07;;;;;;;8.23;5.13;;;17.20;1.00;;;;;;4823697;29;20483;-36
2022/12/03 01:00:34;;;;;;;7.88;4.63;;;17.10;1.00;;;;;;4823593;29;20059;-37
2022/12/03 01:03:01;;;;;;;6.80;4.75;;;17.10;1.00;;;;;;4823144;29;20466;-36
2022/12/03 01:05:28;;;;;;;8.23;4.88;;;17.10;1.00;;;;;;4823371;29;20046;-36
2022/12/03 01:07:55;;;;;;;9.45;4.88;;;17.10;1.00;;;;;;4823506;29;20038;-35
2022/12/03 01:10:22;;;;;;;7.00;4.30;;;17.00;1.00;;;;;;4823461;29;20141;-36
2022/12/03 01:12:48;;;;;;;6.70;3.92;;;17.00;1.00;;;;;;4823090;29;20118;-36
2022/12/03 01:15:15;;;;;;;7.35;4.55;;;17.00;1.00;;;;;;4823470;29;20050;-36
2022/12/03 01:17:42;;;;;;;7.03;4.03;;;17.00;1.00;;;;;;4822948;29;20050;-35
2022/12/03 01:20:09;;;;;;;6.15;4.30;;;17.00;1.00;;;;;;4823155;29;20054;-36
2022/12/03 01:22:36;;;;;;;9.38;5.18;;;16.90;1.00;;;;;;4823072;29;20526;-35
2022/12/03 01:25:03;;;;;;;6.35;3.78;;;16.90;1.00;;;;;;4822989;29;20137;-35
2022/12/03 01:27:30;;;;;;;8.18;3.97;;;16.80;1.00;;;;;;4823247;29;20042;-36
2022/12/03 01:29:57;;;;;;;7.25;4.25;;;16.90;1.00;;;;;;4823239;29;20507;-36
2022/12/03 01:32:24;;;;;;;6.90;3.55;;;16.80;1.00;;;;;;4806480;29;20046;-36
2022/12/03 01:34:52;;;;;;;7.28;4.53;;;16.80;1.00;;;;;;4823453;29;20085;-36
2022/12/03 01:37:21;;;;;;;8.73;4.88;;;16.80;1.00;;;;;;4823237;29;20061;-35
2022/12/03 01:39:48;;;;;;;8.45;4.93;;;16.80;1.00;;;;;;4823112;29;20479;-36
2022/12/03 01:42:23;;;;;;;6.93;3.67;;;16.70;1.00;;;;;;4822851;29;20134;-36
2022/12/03 01:44:53;;;;;;;7.03;3.95;;;16.70;1.00;;;;;;4822746;29;20114;-36
2022/12/03 01:47:26;;;;;;;7.75;4.28;;;16.70;1.00;;;;;;4822953;29;20129;-36
2022/12/03 01:50:13;;;;;;;7.68;4.25;;;16.70;1.00;;;;;;4823074;29;20081;-36
2022/12/03 01:52:41;;;;;;;7.47;4.30;;;16.60;1.00;;;;;;4822562;29;20518;-37
2022/12/03 01:55:14;;;;;;;6.28;3.15;;;16.60;1.00;;;;;;4822870;29;20080;-36
2022/12/03 01:57:51;;;;;;;6.47;3.80;;;16.60;1.00;;;;;;4822873;29;20490;-46
2022/12/03 02:00:21;;;;;;;5.40;3.28;;;16.60;1.00;;;;;;4822995;29;20142;-35
2022/12/03 02:02:57;;;;;;;6.85;3.97;;;16.50;1.00;;;;;;4822506;29;20056;-37
2022/12/03 02:05:27;;;;;;;6.82;3.95;;;16.50;1.00;;;;;;4822681;29;20548;-37
2022/12/03 02:07:54;;;;;;;6.78;4.25;;;16.50;1.00;;;;;;4822769;29;20054;-37
2022/12/03 02:10:29;;;;;;;6.97;4.07;;;16.50;1.00;;;;;;4822764;29;20068;-37
2022/12/03 02:13:09;;;;;;;6.55;4.00;;;16.40;1.00;;;;;;4822578;29;20057;-37
2022/12/03 02:15:38;;;;;;;5.97;3.55;;;16.40;1.00;;;;;;4822645;29;20422;-37
2022/12/03 02:18:07;;;;;;;7.22;4.07;;;16.40;1.00;;;;;;4806265;29;20555;-37
2022/12/03 02:20:42;;;;;;;6.25;3.67;;;16.30;1.00;;;;;;4822620;29;20109;-36
2022/12/03 02:23:12;;;;;;;7.25;3.55;;;16.30;1.00;;;;;;4822266;29;20123;-36
2022/12/03 02:25:39;;;;;;;7.53;3.92;;;16.30;1.00;;;;;;4822527;29;20443;-36
2022/12/03 02:28:08;;;;;;;5.32;3.60;;;16.30;1.00;;;;;;4822602;29;20046;-36
2022/12/03 02:30:35;;;;;;;7.38;4.28;;;16.30;1.00;;;;;;4823515;29;20133;-36
2022/12/03 02:33:02;;;;;;;6.10;3.60;;;16.30;1.00;;;;;;4825523;29;20077;-35
2022/12/03 02:35:32;;;;;;;5.55;3.35;;;16.30;1.00;;;;;;4825658;29;20125;-36
2022/12/03 02:38:12;;;;;;;6.05;3.65;;;16.20;1.00;;;;;;4825902;29;20185;-36
2022/12/03 02:40:40;;;;;;;5.18;3.60;;;16.20;1.00;;;;;;4809445;29;20054;-35
2022/12/03 02:43:08;;;;;;;6.80;3.90;;;16.20;1.00;;;;;;4825365;29;20691;-35
2022/12/03 02:45:38;;;;;;;5.50;3.15;;;16.20;1.00;;;;;;4825660;29;20042;-36
2022/12/03 02:48:23;;;;;;;8.85;3.95;;;16.10;1.00;;;;;;4825531;29;20046;-36
2022/12/03 02:50:56;;;;;;;4.85;3.13;;;16.10;1.00;;;;;;4825564;29;20135;-36
2022/12/03 02:53:27;;;;;;;7.95;3.63;;;16.10;1.00;;;;;;4825336;29;20046;-36
2022/12/03 02:55:57;;;;;;;6.07;3.35;;;16.10;1.00;;;;;;4825310;29;20047;-37
2022/12/03 02:58:24;;;;;;;6.65;3.25;;;16.00;1.00;;;;;;4825532;29;20058;-37
2022/12/03 03:00:53;;;;;;;6.32;3.25;;;16.10;1.00;;;;;;4825360;29;20061;-36
2022/12/03 03:03:22;;;;;;;5.00;3.05;;;16.10;1.00;;;;;;4824896;29;20046;-36
2022/12/03 03:05:49;;;;;;;7.05;3.08;;;16.00;1.00;;;;;;4825233;29;20042;-35
2022/12/03 03:08:17;;;;;;;6.10;2.80;;;16.00;1.00;;;;;;4809044;29;20047;-35
2022/12/03 03:10:46;;;;;;;5.93;2.42;;;16.00;1.00;;;;;;4825226;29;20510;-36
2022/12/03 03:13:18;;;;;;;5.30;3.10;;;16.00;1.00;;;;;;4824967;29;20515;-36
2022/12/03 03:15:45;;;;;;;5.57;2.60;;;16.00;1.00;;;;;;4825048;29;20567;-36
2022/12/03 03:18:13;;;;;;;6.38;3.30;;;15.90;1.00;;;;;;4825092;29;20054;-36
2022/12/03 03:20:41;;;;;;;5.20;3.10;;;15.90;1.00;;;;;;4825145;29;20126;-36
2022/12/03 03:23:10;;;;;;;5.13;3.08;;;15.90;1.00;;;;;;4824556;29;20038;-36
2022/12/03 03:25:39;;;;;;;4.50;3.05;;;15.90;1.00;;;;;;4824317;29;20546;-36
2022/12/03 03:28:06;;;;;;;5.10;3.53;;;15.90;1.00;;;;;;4824930;29;20452;-35
2022/12/03 03:30:34;;;;;;;4.43;2.78;;;15.90;1.00;;;;;;4824561;29;20042;-35
2022/12/03 03:33:01;;;;;;;4.78;2.90;;;15.80;1.00;;;;;;4824959;29;20225;-37
2022/12/03 03:35:28;;;;;;;4.65;3.15;;;15.80;1.00;;;;;;4824461;29;20059;-36
2022/12/03 03:37:57;;;;;;;5.22;2.50;;;15.80;1.00;;;;;;4824328;29;20122;-36
2022/12/03 03:40:25;;;;;;;5.57;3.33;;;15.80;1.00;;;;;;4824550;29;20482;-35
2022/12/03 03:42:54;;;;;;;4.90;2.85;;;15.80;1.00;;;;;;4824101;29;20051;-36
2022/12/03 03:45:21;;;;;;;4.72;2.63;;;15.80;1.00;;;;;;4824645;29;20047;-37
2022/12/03 03:47:56;;;;;;;6.40;3.13;;;15.70;1.00;;;;;;4824251;29;20391;-36
2022/12/03 03:50:23;;;;;;;5.93;3.25;;;15.70;1.00;;;;;;4824180;29;20057;-35
2022/12/03 03:52:50;;;;;;;4.05;2.60;;;15.70;1.00;;;;;;4824127;29;20103;-37
2022/12/03 03:55:19;;;;;;;5.88;3.35;;;15.70;1.00;;;;;;4823643;29;20073;-36
2022/12/03 03:57:46;;;;;;;6.90;3.28;;;15.70;1.00;;;;;;4830139;29;20046;-36
2022/12/03 04:00:16;;;;;;;4.57;2.90;;;15.70;1.00;;;;;;4836024;29;20374;-36
2022/12/03 04:02:44;;;;;;;4.38;2.65;;;15.70;1.00;;;;;;4841280;29;20111;-36
2022/12/03 04:05:16;;;;;;;4.72;2.33;;;15.60;1.00;;;;;;4842441;29;20046;-36
2022/12/03 04:07:43;;;;;;;6.03;3.03;;;15.60;1.00;;;;;;4842736;29;20057;-36
2022/12/03 04:12:57;;;;;;;4.70;2.63;;;15.60;1.00;;;;;;4842123;29;20475;-36
2022/12/03 04:15:24;;;;;;;7.20;3.50;;;15.50;1.00;;;;;;4830127;29;20082;-35
2022/12/03 04:20:40;;;;;;;4.18;2.50;;;15.50;1.00;;;;;;4824110;29;20406;-36
2022/12/03 04:23:07;;;;;;;6.20;3.08;;;15.50;1.00;;;;;;4823886;29;20054;-36
2022/12/03 04:35:41;;;;;;;4.75;3.00;;;15.50;1.00;;;;;;4824015;29;20099;-36
2022/12/03 04:36:37;;;;;;;4.15;2.53;;;15.40;1.00;;;;;;4823982;29;20046;-36
2022/12/03 04:39:04;;;;;;;5.47;2.90;;;15.40;1.00;;;;;;4824012;29;20073;-36
2022/12/03 04:41:31;;;;;;;6.15;2.72;;;15.40;1.00;;;;;;4823897;29;20134;-37
2022/12/03 04:46:43;;;;;;;6.88;3.53;;;15.40;1.00;;;;;;4823828;29;20074;-36
2022/12/03 04:49:11;;;;;;;4.82;2.88;;;15.40;1.00;;;;;;4807282;29;20050;-36
2022/12/03 04:51:38;;;;;;;5.32;3.00;;;15.40;1.00;;;;;;4823763;29;20103;-36
2022/12/03 04:54:05;;;;;;;4.30;2.75;;;15.40;1.00;;;;;;4822793;29;20103;-36
2022/12/03 04:56:31;;;;;;;4.82;2.95;;;15.30;1.00;;;;;;4823564;29;20057;-36
2022/12/03 04:58:58;;;;;;;5.47;3.10;;;15.30;1.00;;;;;;4823618;29;20050;-36
2022/12/03 05:01:25;;;;;;;6.40;2.80;;;15.30;1.00;;;;;;4823522;29;20126;-36
2022/12/03 05:03:52;;;;;;;5.20;2.75;;;15.30;1.00;;;;;;4823334;29;20066;-35
2022/12/03 05:06:18;;;;;;;6.10;3.22;;;15.30;1.00;;;;;;4823433;29;20050;-36
2022/12/03 05:08:45;;;;;;;5.82;3.97;;;15.30;1.00;;;;;;4823563;29;20080;-37
2022/12/03 05:11:12;;;;;;;5.35;3.42;;;15.30;1.00;;;;;;4823818;29;20126;-37
2022/12/03 05:13:39;;;;;;;3.65;2.38;;;15.30;1.00;;;;;;4806704;29;20122;-36
2022/12/03 05:16:06;;;;;;;6.32;3.33;;;15.20;1.00;;;;;;4823168;29;20129;-36
2022/12/03 05:18:32;;;;;;;6.32;3.42;;;15.20;1.00;;;;;;4823454;29;20073;-37
2022/12/03 05:20:59;;;;;;;5.43;3.15;;;15.20;1.00;;;;;;4823356;29;20156;-36
2022/12/03 05:23:28;;;;;;;6.22;3.53;;;15.20;1.00;;;;;;4822877;29;20115;-36
2022/12/03 05:25:55;;;;;;;7.70;3.40;;;15.20;1.00;;;;;;4823079;29;20110;-37
2022/12/03 05:28:23;;;;;;;5.35;3.28;;;15.20;1.00;;;;;;4823240;29;20391;-37
2022/12/03 05:30:50;;;;;;;7.60;3.38;;;15.20;1.00;;;;;;4823131;29;20103;-36
2022/12/03 05:33:17;;;;;;;6.68;3.17;;;15.20;1.00;;;;;;4823112;29;20193;-36
2022/12/03 05:35:44;;;;;;;9.15;3.92;;;15.10;1.00;;;;;;4823067;29;20081;-36
2022/12/03 05:38:11;;;;;;;5.70;3.22;;;15.10;1.00;;;;;;4823076;29;20498;-36
2022/12/03 05:40:38;;;;;;;7.03;4.20;;;15.10;1.00;;;;;;4822925;29;20042;-37
2022/12/03 05:43:04;;;;;;;7.07;3.28;;;15.10;1.00;;;;;;4822715;29;20072;-36
2022/12/03 05:45:34;;;;;;;5.97;3.53;;;15.10;1.00;;;;;;4823139;29;20050;-36
2022/12/03 05:48:02;;;;;;;4.80;3.30;;;15.10;1.00;;;;;;4822963;29;20046;-36
2022/12/03 05:50:31;;;;;;;5.82;3.67;;;15.10;1.00;;;;;;4823022;29;20487;-36
2022/12/03 05:53:13;;;;;;;7.00;3.33;;;15.10;1.00;;;;;;4822999;29;20061;-36
2022/12/03 05:55:40;;;;;;;5.20;2.88;;;15.00;1.00;;;;;;4822764;29;20058;-36
2022/12/03 05:58:07;;;;;;;5.15;3.80;;;15.00;1.00;;;;;;4822944;29;20054;-36
2022/12/03 06:00:37;;;;;;;5.32;2.90;;;15.00;1.00;;;;;;4822942;29;20452;-35
2022/12/03 06:03:09;;;;;;;5.25;3.20;;;15.00;1.00;;;;;;4823857;29;20103;-35
2022/12/03 06:05:36;;;;;;;6.18;3.20;;;15.00;1.00;;;;;;4838459;29;20083;-36
2022/12/03 06:08:03;;;;;;;7.03;3.88;;;15.00;1.00;;;;;;4842837;29;20558;-36
2022/12/03 06:10:30;;;;;;;7.00;3.45;;;15.00;1.00;;;;;;4843636;29;20034;-37
2022/12/03 06:12:57;;;;;;;4.95;3.30;;;15.00;1.00;;;;;;4844176;29;20064;-36
2022/12/03 06:15:23;;;;;;;6.47;3.65;;;15.00;1.00;;;;;;4844519;29;20054;-35
2022/12/03 06:17:50;;;;;;;7.68;3.63;;;15.00;1.00;;;;;;4844690;29;20140;-36
2022/12/03 06:20:20;;;;;;;6.28;3.35;;;14.90;1.00;;;;;;4828230;29;20123;-36
2022/12/03 06:22:47;;;;;;;5.22;3.65;;;14.90;1.00;;;;;;4837355;29;20120;-35
2022/12/03 06:25:15;;;;;;;5.03;3.33;;;14.90;1.00;;;;;;4839085;29;20418;-37
2022/12/03 06:27:41;;;;;;;7.30;4.00;;;14.90;1.00;;;;;;4843389;29;20049;-36
2022/12/03 06:30:11;;;;;;;10.93;3.42;;;14.90;1.00;;;;;;4840677;29;20053;-36
2022/12/03 06:32:38;;;;;;;7.35;3.80;;;14.90;1.00;;;;;;4829125;29;20039;-37
2022/12/03 06:35:05;;;;;;;5.80;3.55;;;14.90;1.00;;;;;;4836579;29;20046;-35
2022/12/03 06:37:32;;;;;;;6.45;3.75;;;14.90;1.00;;;;;;4836942;29;20525;-35
2022/12/03 06:39:58;;;;;;;12.40;3.78;;;14.90;1.00;;;;;;4844009;29;20072;-36
2022/12/03 06:42:25;;;;;;;9.27;4.03;;;14.90;1.00;;;;;;4839573;29;20049;-36
2022/12/03 06:44:52;;;;;;;7.57;3.80;;;15.00;1.00;;;;;;4843716;29;20095;-35
2022/12/03 06:47:19;;;;;;;6.15;3.42;;;15.10;1.00;;;;;;4844155;29;20054;-35
2022/12/03 06:49:45;;;;;;;7.95;3.53;;;15.20;1.00;;;;;;4843972;29;20041;-35
2022/12/03 06:52:12;;;;;;;7.78;4.15;;;15.40;1.00;;;;;;4837785;29;20144;-36
2022/12/03 06:54:39;;;;;;;6.97;3.63;;;15.60;1.00;;;;;;4843613;29;20076;-36
2022/12/03 06:57:05;;;;;;;7.80;3.92;;;15.80;1.00;;;;;;4843789;29;20054;-36
2022/12/03 06:59:34;;;;;;;6.18;3.33;;;16.00;1.00;;;;;;4843744;29;20102;-37
2022/12/03 07:02:01;;;;;;;5.10;2.85;;;16.20;1.00;;;;;;4844034;29;20440;-37
2022/12/03 07:04:28;;;;;;;4.68;3.17;;;16.40;1.00;;;;;;4843366;29;20132;-37
2022/12/03 07:07:02;;;;;;;5.35;2.80;;;16.50;1.00;;;;;;4843623;29;20045;-37
2022/12/03 07:09:55;;;;;;;16.42;4.10;;;16.70;1.00;;;;;;4843669;29;20045;-37
2022/12/03 07:12:24;;;;;;;12.88;4.32;;;16.80;1.00;;;;;;4843450;29;20069;-37
2022/12/03 07:15:04;;;;;;;9.02;4.85;;;17.00;1.00;;;;;;4843278;29;20720;-37
2022/12/03 07:17:35;;;;;;;18.13;4.28;;;17.10;1.00;;;;;;4841530;29;20468;-37
2022/12/03 07:20:10;;;;;;;17.95;4.78;;;17.20;1.00;;;;;;4843393;29;20054;-37
2022/12/03 07:22:37;;;;;;;15.82;5.28;;;17.30;1.00;;;;;;4843147;29;20102;-37
2022/12/03 07:25:06;;;;;;;12.98;4.00;;;17.30;1.00;;;;;;4839694;29;20524;-36
2022/12/03 07:27:36;;;;;;;12.75;4.13;;;17.40;1.00;;;;;;4828527;29;20046;-36
2022/12/03 07:30:08;;;;;;;8.73;3.88;;;17.40;1.00;;;;;;4828021;29;20087;-36
2022/12/03 07:32:38;;;;;;;16.42;4.68;;;17.40;1.00;;;;;;4829786;29;20094;-36
2022/12/03 07:35:06;;;;;;;9.48;3.55;;;17.50;1.00;;;;;;4804916;29;20631;-36
2022/12/03 07:37:36;;;;;;;9.82;4.40;;;17.50;1.00;;;;;;4824740;29;20047;-37
2022/12/03 07:40:14;;;;;;;14.98;4.15;;;17.40;1.00;;;;;;4830103;29;20043;-38
2022/12/03 07:42:44;;;;;;;14.25;4.13;;;17.40;1.00;;;;;;4819654;29;20042;-38
2022/12/03 07:45:12;;;;;;;10.35;4.28;;;17.40;1.00;;;;;;4818538;29;20057;-36
2022/12/03 07:47:42;;;;;;;17.13;4.65;;;17.40;1.00;;;;;;4837181;29;20077;-37
2022/12/03 07:53:12;;;;;;;11.45;4.53;;;17.30;1.00;;;;;;4840656;29;20418;-37
2022/12/03 07:55:42;;;;;;;8.43;4.07;;;17.30;1.00;;;;;;4839431;29;20046;-36
2022/12/03 07:58:17;;;;;;;10.57;4.30;;;17.30;1.00;;;;;;4839393;29;20077;-37
2022/12/03 08:00:44;;;;;;;9.40;4.47;;;17.30;1.00;;;;;;4821194;29;20106;-37
2022/12/03 08:03:17;;;;;;;8.63;4.63;;;17.20;1.00;;;;;;4835524;29;20053;-37
2022/12/03 08:05:44;;;;;;;9.88;4.05;;;17.20;1.00;;;;;;4839433;29;20038;-36
2022/12/03 08:08:13;;;;;;;8.52;4.00;;;17.10;1.00;;;;;;4823817;29;20073;-36
2022/12/03 08:10:40;;;;;;;8.65;3.97;;;17.10;1.00;;;;;;4829837;29;20054;-37
2022/12/03 08:13:15;;;;;;;9.50;3.55;;;17.10;1.00;;;;;;4819835;29;20427;-37
2022/12/03 08:15:43;;;;;;;9.90;4.55;;;17.00;1.00;;;;;;4820248;29;20051;-36
2022/12/03 08:18:17;;;;;;;11.20;5.00;;;17.00;1.00;;;;;;4825036;29;20411;-36
2022/12/03 08:20:50;;;;;;;9.10;4.72;;;17.00;1.00;;;;;;4842059;29;20537;-36
2022/12/03 08:23:29;;;;;;;9.80;4.55;;;16.90;1.00;;;;;;4842046;29;20100;-36
2022/12/03 08:26:24;;;;;;;8.48;4.47;;;16.90;1.00;;;;;;4841931;29;20484;-37
2022/12/03 08:28:52;;;;;;;9.18;4.75;;;16.90;1.00;;;;;;4840752;29;20125;-37
2022/12/03 08:31:24;;;;;;;9.88;4.45;;;16.80;1.00;;;;;;4842136;29;20073;-35
2022/12/03 08:34:16;;;;;;;9.07;5.30;;;16.80;1.00;;;;;;4841868;29;20080;-37
2022/12/03 08:36:44;;;;;;;9.38;5.22;;;16.70;1.00;;;;;;4840880;29;20137;-37
2022/12/03 08:39:29;;;;;;;13.25;4.25;;;16.70;1.00;;;;;;4842178;29;20098;-36
2022/12/03 08:44:54;;;;;;;8.60;4.22;;;16.60;1.00;;;;;;4825098;29;20183;-36
2022/12/03 08:47:23;;;;;;;8.85;4.28;;;16.60;1.00;;;;;;4842052;29;20091;-36
2022/12/03 08:50:25;;;;;;;8.52;4.60;;;16.50;1.00;;;;;;4841783;29;20130;-37
2022/12/03 08:52:53;;;;;;;8.15;4.43;;;16.50;1.00;;;;;;4837855;29;20095;-37
2022/12/03 08:55:37;;;;;;;8.07;4.75;;;16.40;1.00;;;;;;4841592;29;20057;-37
2022/12/03 08:58:40;;;;;;;10.13;5.05;;;16.40;1.00;;;;;;4841803;29;20046;-37
2022/12/03 09:01:10;;;;;;;11.43;5.20;;;16.30;1.00;;;;;;4841610;29;20050;-37
2022/12/03 09:03:49;;;;;;;8.57;4.50;;;16.30;1.00;;;;;;4841410;29;20401;-37
2022/12/03 09:06:16;;;;;;;8.93;4.82;;;16.30;1.00;;;;;;4841392;29;20402;-37
2022/12/03 09:08:43;;;;;;;7.28;3.95;;;16.30;1.00;;;;;;4841573;29;20125;-37
2022/12/03 09:11:28;;;;;;;8.85;4.60;;;16.20;1.00;;;;;;4813117;29;20054;-37
2022/12/03 09:13:54;;;;;;;10.05;5.30;;;16.20;1.00;;;;;;4841258;29;20145;-37
2022/12/03 09:16:21;;;;;;;7.00;4.32;;;16.20;1.00;;;;;;4841215;29;20518;-37
2022/12/03 09:18:48;;;;;;;8.82;4.50;;;16.10;1.00;;;;;;4841239;29;20054;-37
2022/12/03 09:21:15;;;;;;;10.63;4.65;;;16.10;1.00;;;;;;4825256;29;20493;-37
2022/12/03 09:23:41;;;;;;;9.15;4.25;;;16.10;1.00;;;;;;4841069;29;20046;-37
2022/12/03 09:26:08;;;;;;;9.30;5.30;;;16.10;1.00;;;;;;4840900;29;20056;-37
2022/12/03 09:28:35;;;;;;;12.48;4.53;;;16.00;1.00;;;;;;4841297;29;20134;-37
2022/12/03 09:31:01;;;;;;;9.63;5.07;;;16.00;1.00;;;;;;4841071;29;20555;-37
2022/12/03 09:33:31;;;;;;;9.00;4.55;;;16.00;1.00;;;;;;4841039;29;20057;-36
2022/12/03 09:35:58;;;;;;;7.18;3.97;;;15.90;1.00;;;;;;4841128;29;20061;-36
2022/12/03 09:38:25;;;;;;;7.88;5.15;;;15.90;1.00;;;;;;4841199;29;20085;-36
2022/12/03 09:40:53;;;;;;;10.40;4.35;;;15.90;1.00;;;;;;4840731;29;20084;-36
2022/12/03 09:43:20;;;;;;;8.88;4.95;;;15.90;1.00;;;;;;4841072;29;20046;-36
2022/12/03 09:45:47;;;;;;;8.95;5.00;;;15.90;1.00;;;;;;4824727;29;20050;-36
2022/12/03 09:48:19;;;;;;;9.68;5.15;;;15.90;1.00;;;;;;4841200;29;20050;-36
2022/12/03 09:50:47;;;;;;;9.75;5.15;;;15.80;1.00;;;;;;4841075;29;20133;-36
2022/12/03 09:53:19;;;;;;;9.07;4.70;;;15.80;1.00;;;;;;4840773;29;20042;-36
2022/12/03 09:55:47;;;;;;;9.57;4.80;;;15.80;1.00;;;;;;4840915;29;20503;-37
2022/12/03 09:58:16;;;;;;;6.75;4.10;;;15.80;1.00;;;;;;4841014;29;20125;-36
2022/12/03 10:00:49;;;;;;;9.02;4.35;;;15.70;1.00;;;;;;4840941;29;20057;-36
2022/12/03 10:03:19;;;;;;;9.80;4.95;;;15.70;1.00;;;;;;4840932;29;20470;-36
2022/12/03 10:05:54;;;;;;;7.07;4.40;;;15.70;1.00;;;;;;4824760;29;20073;-36
2022/12/03 10:08:22;;;;;;;8.43;4.55;;;15.70;1.00;;;;;;4824581;29;20050;-35
2022/12/03 10:10:55;;;;;;;8.82;4.70;;;15.60;1.00;;;;;;4840880;29;20518;-36
2022/12/03 10:13:26;;;;;;;7.30;4.05;;;15.60;1.00;;;;;;4840784;29;20053;-36
2022/12/03 10:15:55;;;;;;;9.30;4.82;;;15.60;1.00;;;;;;4840841;29;20138;-36
2022/12/03 10:18:25;;;;;;;9.57;4.70;;;15.60;1.00;;;;;;4840856;29;20054;-35
2022/12/03 10:20:56;;;;;;;6.82;4.47;;;15.50;1.00;;;;;;4840667;29;20053;-36
2022/12/03 10:23:28;;;;;;;8.10;4.40;;;15.50;1.00;;;;;;4840318;29;20595;-36
2022/12/03 10:26:03;;;;;;;9.60;5.32;;;15.50;1.00;;;;;;4840711;29;20565;-36
2022/12/03 10:28:33;;;;;;;6.90;4.05;;;15.50;1.00;;;;;;4841133;29;20053;-37
2022/12/03 10:31:03;;;;;;;9.98;4.63;;;15.50;1.00;;;;;;4840601;29;20498;-36
2022/12/03 10:33:35;;;;;;;6.47;4.18;;;15.50;1.00;;;;;;4824162;29;20054;-36
2022/12/03 10:36:20;;;;;;;9.53;5.17;;;15.50;1.00;;;;;;4840547;29;20136;-36
2022/12/03 10:39:08;;;;;;;8.05;4.53;;;15.40;1.00;;;;;;4840674;29;20058;-37
2022/12/03 10:41:36;;;;;;;7.32;4.03;;;15.40;1.00;;;;;;4840495;29;20114;-37
2022/12/03 10:44:20;;;;;;;10.43;5.13;;;15.40;1.00;;;;;;4840206;29;20050;-37
2022/12/03 10:47:06;;;;;;;7.85;4.88;;;15.40;1.00;;;;;;4840569;29;20098;-37
2022/12/03 10:49:33;;;;;;;7.38;3.90;;;15.40;1.00;;;;;;4840681;29;20121;-37
2022/12/03 10:52:01;;;;;;;7.97;3.97;;;15.30;1.00;;;;;;4842160;29;20129;-36
2022/12/03 10:54:30;;;;;;;8.65;4.85;;;15.30;1.00;;;;;;4843203;29;20050;-36
2022/12/03 10:56:57;;;;;;;9.02;5.00;;;15.30;1.00;;;;;;4843781;29;20042;-35
2022/12/03 10:59:29;;;;;;;9.75;5.53;;;15.30;1.00;;;;;;4844046;29;20108;-36
2022/12/03 11:01:56;;;;;;;10.55;4.90;;;15.30;1.00;;;;;;4827254;29;20107;-36
2022/12/03 11:04:31;;;;;;;7.95;5.10;;;15.20;1.00;;;;;;4843146;29;20041;-36
2022/12/03 11:07:00;;;;;;;7.80;4.65;;;15.30;1.00;;;;;;4843577;29;20045;-36
2022/12/03 11:09:30;;;;;;;9.85;4.55;;;15.20;1.00;;;;;;4842352;29;20042;-36
2022/12/03 11:12:05;;;;;;;7.10;4.43;;;15.30;1.00;;;;;;4843596;29;20037;-36
2022/12/03 11:14:53;;;;;;;7.95;4.32;;;15.20;1.00;;;;;;4843380;29;20084;-36
2022/12/03 11:17:41;;;;;;;11.63;5.38;;;15.20;1.00;;;;;;4827081;29;20128;-37
2022/12/03 11:20:23;;;;;;;9.23;4.30;;;15.20;1.00;;;;;;4827024;29;20073;-36
2022/12/03 11:22:52;;;;;;;10.27;4.75;;;15.20;1.00;;;;;;4841992;29;20626;-37
2022/12/03 11:25:27;;;;;;;8.05;4.00;;;15.20;1.00;;;;;;4826483;29;20122;-36
2022/12/03 11:28:12;;;;;;;8.57;4.32;;;15.10;1.00;;;;;;4843362;29;20173;-37
2022/12/03 11:30:50;;;;;;;8.65;4.03;;;15.10;1.00;;;;;;4843043;29;20050;-37
2022/12/03 11:33:23;;;;;;;8.73;5.32;;;15.10;1.00;;;;;;4843102;29;20042;-36
2022/12/03 11:36:02;;;;;;;8.63;4.50;;;15.10;1.00;;;;;;4843192;29;20053;-36
2022/12/03 11:38:41;;;;;;;7.72;5.10;;;15.10;1.00;;;;;;4843135;29;20060;-35
2022/12/03 11:41:28;;;;;;;8.48;4.22;;;15.10;1.00;;;;;;4843128;29;20407;-36
2022/12/03 11:44:29;;;;;;;8.32;4.10;;;15.10;1.00;;;;;;4842731;29;20049;-37
2022/12/03 11:46:58;;;;;;;8.63;4.30;;;15.10;1.00;;;;;;4843017;29;20102;-37
2022/12/03 11:49:31;;;;;;;10.05;5.32;;;15.00;1.00;;;;;;4842916;29;20106;-37
2022/12/03 11:52:01;;;;;;;10.27;5.18;;;15.00;1.00;;;;;;4842966;29;20140;-36
2022/12/03 11:54:33;;;;;;;6.78;4.15;;;15.00;1.00;;;;;;4842496;29;20081;-36
2022/12/03 11:56:59;;;;;;;9.77;4.78;;;15.00;1.00;;;;;;4842663;29;20146;-36
2022/12/03 11:59:26;;;;;;;8.43;5.13;;;15.00;1.00;;;;;;4842719;29;20053;-36
2022/12/03 12:01:53;;;;;;;9.15;4.28;;;15.00;1.00;;;;;;4842498;29;20395;-36
2022/12/03 12:04:33;;;;;;;9.38;5.10;;;15.00;1.00;;;;;;4842229;29;20133;-37
2022/12/03 12:07:00;;;;;;;11.07;5.30;;;15.00;1.00;;;;;;4841171;29;20054;-36
2022/12/03 12:09:48;;;;;;;8.63;4.60;;;15.00;1.00;;;;;;4842434;29;20084;-35
2022/12/03 12:12:30;;;;;;;9.45;5.72;;;15.00;1.00;;;;;;4810994;29;20069;-35
2022/12/03 12:14:57;;;;;;;7.32;4.47;;;14.90;1.00;;;;;;4842293;29;20050;-36
2022/12/03 12:17:35;;;;;;;9.10;4.65;;;14.90;1.00;;;;;;4842332;29;20050;-36
2022/12/03 12:20:31;;;;;;;8.13;4.82;;;14.90;1.00;;;;;;4842362;29;20049;-36
2022/12/03 12:23:22;;;;;;;9.10;5.03;;;14.90;1.00;;;;;;4830539;29;20125;-36
2022/12/03 12:25:48;;;;;;;9.27;5.30;;;14.90;1.00;;;;;;4842014;29;20066;-36
2022/12/03 12:28:20;;;;;;;11.10;5.38;;;14.90;1.00;;;;;;4842184;29;20046;-38
2022/12/03 12:30:47;;;;;;;8.20;4.53;;;14.90;1.00;;;;;;4842541;29;20046;-35
2022/12/03 12:33:21;;;;;;;7.22;4.22;;;14.90;1.00;;;;;;4841891;29;20038;-36
2022/12/03 12:35:49;;;;;;;6.72;4.40;;;14.80;1.00;;;;;;4841877;29;20106;-36
2022/12/03 12:38:20;;;;;;;8.65;3.88;;;14.80;1.00;;;;;;4842260;29;20114;-36
2022/12/03 12:40:49;;;;;;;9.35;4.40;;;14.80;1.00;;;;;;4841859;29;20483;-36
2022/12/03 12:43:22;;;;;;;7.25;4.97;;;14.80;1.00;;;;;;4841667;29;20054;-36
2022/12/03 12:45:55;;;;;;;9.20;4.75;;;14.80;1.00;;;;;;4841727;29;20090;-36
2022/12/03 12:48:26;;;;;;;7.68;4.03;;;14.80;1.00;;;;;;4841877;29;20130;-35
2022/12/03 12:50:58;;;;;;;7.53;4.75;;;14.80;1.00;;;;;;4841701;29;20578;-36
2022/12/03 12:53:33;;;;;;;8.85;4.75;;;14.80;1.00;;;;;;4841532;29;20110;-36
2022/12/03 12:56:13;;;;;;;8.35;4.43;;;14.80;1.00;;;;;;4841719;29;20536;-36
2022/12/03 12:58:41;;;;;;;10.57;5.07;;;14.80;1.00;;;;;;4841860;29;20102;-36
2022/12/03 13:01:18;;;;;;;10.27;6.15;;;14.70;1.00;;;;;;4841632;29;20053;-37
2022/12/03 13:03:50;;;;;;;8.13;4.57;;;14.70;1.00;;;;;;4825043;29;20073;-35
2022/12/03 13:06:18;;;;;;;8.25;4.75;;;14.70;1.00;;;;;;4841570;29;20065;-37
2022/12/03 13:08:47;;;;;;;10.55;4.88;;;14.70;1.00;;;;;;4825496;29;20057;-37
2022/12/03 13:11:23;;;;;;;7.50;4.82;;;14.70;1.00;;;;;;4841475;29;20065;-38
2022/12/03 13:13:51;;;;;;;9.52;5.13;;;14.70;1.00;;;;;;4840790;29;20057;-36
2022/12/03 13:16:19;;;;;;;7.70;4.45;;;14.70;1.00;;;;;;4841342;29;20102;-36
2022/12/03 13:18:58;;;;;;;8.27;4.47;;;14.70;1.00;;;;;;4841352;29;20049;-36
2022/12/03 13:21:38;;;;;;;8.50;5.00;;;14.70;1.00;;;;;;4841313;29;20057;-36
2022/12/03 13:24:30;;;;;;;8.35;4.80;;;14.70;1.00;;;;;;4841011;29;20050;-36
2022/12/03 13:27:12;;;;;;;8.70;4.55;;;14.60;1.00;;;;;;4825167;29;20424;-36
2022/12/03 13:29:39;;;;;;;8.85;5.22;;;14.60;1.00;;;;;;4841226;29;20094;-36
2022/12/03 13:32:19;;;;;;;7.57;4.30;;;14.60;1.00;;;;;;4841277;29;20069;-36
2022/12/03 13:34:49;;;;;;;11.48;6.20;;;14.60;1.00;;;;;;4824820;29;20082;-36
2022/12/03 13:37:21;;;;;;;8.48;4.78;;;14.60;1.00;;;;;;4825028;29;20521;-36